Sirius — WDA2145 — position and weather

sailwx.info

Track history (hours):
 
Tides and Currents Weather Stations Pressure Air Temp Water Temp Dewpoint Dewpoint Depression Visibility Wind Speed Wind Dir Waves Ship Positions

Sirius

Owner: TISBURY TOWING AND TRANSPORTATION INC, TISBURY, MA. More information available from US FCC via Universal Licensing System and Coast Guard Vessel Documentation Center.

Last reported at 2014-Nov-18 23:16 UTC. Time now 2014-Nov-22 21:35 UTC.
Position N 41°33' W 070°49'.

Length 19 m; draft 1.9 m.

Type: Towing. MMSI: 367181040.

Date/timePositionNaut miles runAvg speedWind from/ knotsBaromVisibWave heightAir tempDewpointWater temp
2014-Nov-18 23:16N 41°33' W 070°49'9 0.4
2014-Nov-17 22:28N 41°28' W 070°39'7 8.1
2014-Nov-17 21:34N 41°26' W 070°48'6 5.7
2014-Nov-17 20:34N 41°25' W 070°55'0 0.2
2014-Nov-17 19:26N 41°25' W 070°55'0 0.0
2014-Nov-17 18:14N 41°25' W 070°55'0 0.0
2014-Nov-17 17:30N 41°25' W 070°55'15 1.0
2014-Nov-17 02:29N 41°27' W 070°36'  
2014-Nov-13 23:33N 41°33' W 070°46'7 7.0
2014-Nov-13 22:33N 41°30' W 070°37'3 3.0
2014-Nov-13 21:33N 41°27' W 070°36'1 0.1
2014-Nov-13 03:32N 41°29' W 070°35'6 6.1
2014-Nov-13 02:34N 41°32' W 070°42'6 6.2
2014-Nov-13 01:33N 41°33' W 070°50'3 0.6
2014-Nov-12 21:33N 41°31' W 070°52'6 6.0
2014-Nov-12 20:32N 41°25' W 070°55'4 3.8
2014-Nov-12 19:33N 41°27' W 070°51'12 3.5
2014-Nov-12 16:13N 41°27' W 070°36'3 4.1
2014-Nov-12 15:33N 41°30' W 070°37'7 7.1
2014-Nov-12 14:34N 41°32' W 070°46'7 6.5
2014-Nov-12 13:34N 41°36' W 070°53'2 2.3
2014-Nov-12 12:34N 41°38' W 070°54'1 0.5
2014-Nov-12 11:34N 41°38' W 070°55'0 0.0
2014-Nov-12 10:11N 41°38' W 070°55'0 0.0
2014-Nov-12 09:33N 41°38' W 070°55'6 6.5
2014-Nov-12 08:34N 41°33' W 070°50'7 7.1
2014-Nov-12 07:33N 41°31' W 070°40'5 5.1
2014-Nov-12 06:34N 41°27' W 070°36'0 0.0
2014-Nov-10 21:33N 41°27' W 070°36'0 0.0
2014-Nov-10 20:33N 41°27' W 070°36'0 0.1
2014-Nov-10 19:33N 41°27' W 070°36'0 0.0
2014-Nov-10 18:24N 41°27' W 070°36'2 2.4
2014-Nov-10 17:33N 41°29' W 070°36'8 7.4
2014-Nov-10 16:30N 41°32' W 070°46'3 0.4
2014-Nov-10 08:33N 41°33' W 070°50'9 7.8
2014-Nov-10 07:27N 41°30' W 070°39'  
Track history (hours):
 
Tides and Currents Weather Stations Pressure Air Temp Water Temp Dewpoint Dewpoint Depression Visibility Wind Speed Wind Dir Waves Ship Positions

Sirius

Owner: TISBURY TOWING AND TRANSPORTATION INC, TISBURY, MA. More information available from US FCC via Universal Licensing System and Coast Guard Vessel Documentation Center.

Last reported at 2014-Nov-18 23:16 UTC. Time now 2014-Nov-22 21:35 UTC.
Position N 41°33' W 070°49'.

Length 19 m; draft 1.9 m.

Type: Towing. MMSI: 367181040.

Date/timePositionNaut miles runAvg speedWind from/ knotsBaromVisibWave heightAir tempDewpointWater temp
2014-Nov-18 23:16N 41°33' W 070°49'9 0.4
2014-Nov-17 22:28N 41°28' W 070°39'7 8.1
2014-Nov-17 21:34N 41°26' W 070°48'6 5.7
2014-Nov-17 20:34N 41°25' W 070°55'0 0.2
2014-Nov-17 19:26N 41°25' W 070°55'0 0.0
2014-Nov-17 18:14N 41°25' W 070°55'0 0.0
2014-Nov-17 17:30N 41°25' W 070°55'15 1.0
2014-Nov-17 02:29N 41°27' W 070°36'  
2014-Nov-13 23:33N 41°33' W 070°46'7 7.0
2014-Nov-13 22:33N 41°30' W 070°37'3 3.0
2014-Nov-13 21:33N 41°27' W 070°36'1 0.1
2014-Nov-13 03:32N 41°29' W 070°35'6 6.1
2014-Nov-13 02:34N 41°32' W 070°42'6 6.2
2014-Nov-13 01:33N 41°33' W 070°50'3 0.6
2014-Nov-12 21:33N 41°31' W 070°52'6 6.0
2014-Nov-12 20:32N 41°25' W 070°55'4 3.8
2014-Nov-12 19:33N 41°27' W 070°51'12 3.5
2014-Nov-12 16:13N 41°27' W 070°36'3 4.1
2014-Nov-12 15:33N 41°30' W 070°37'7 7.1
2014-Nov-12 14:34N 41°32' W 070°46'7 6.5
2014-Nov-12 13:34N 41°36' W 070°53'2 2.3
2014-Nov-12 12:34N 41°38' W 070°54'1 0.5
2014-Nov-12 11:34N 41°38' W 070°55'0 0.0
2014-Nov-12 10:11N 41°38' W 070°55'0 0.0
2014-Nov-12 09:33N 41°38' W 070°55'6 6.5
2014-Nov-12 08:34N 41°33' W 070°50'7 7.1
2014-Nov-12 07:33N 41°31' W 070°40'5 5.1
2014-Nov-12 06:34N 41°27' W 070°36'0 0.0
2014-Nov-10 21:33N 41°27' W 070°36'0 0.0
2014-Nov-10 20:33N 41°27' W 070°36'0 0.1
2014-Nov-10 19:33N 41°27' W 070°36'0 0.0
2014-Nov-10 18:24N 41°27' W 070°36'2 2.4
2014-Nov-10 17:33N 41°29' W 070°36'8 7.4
2014-Nov-10 16:30N 41°32' W 070°46'3 0.4
2014-Nov-10 08:33N 41°33' W 070°50'9 7.8
2014-Nov-10 07:27N 41°30' W 070°39'  

Dump ship's entire track history